• Join FlightAware (Why Join?)
  • Login
  • US Flag 
12:12PM EST


 

Airport Tracker/Info


-or-


 

Live Flight TrackerFlight Track Log ✈ EJA922 ✈ 03-Jul-2013 ✈ KSOP - KHPN

Flight Track Log - Related Links

Times and Time Zones

All times are in EDT time to prevent confusion due to time zone crossing. See the EJA922 flight status page for this flight to view local times or setup timezone preferences in your user account.

Time Position Orientation Groundspeed Altitude Reporting Facility
EDT Latitude Longitude Course Direction KTS MPH feet Rate Location/Type
07:39AM 35.3222 -79.3086 38° Northeast 268 308 5,700  Level Washington Center
07:40AM 35.3908 -79.2481 36° Northeast 306 352 10,300 2,880 Climbing Washington Center
07:41AM 35.4639 -79.1750 39° Northeast 317 365 11,600 1,620 Climbing Washington Center
07:42AM 35.5369 -79.1042 38° Northeast 354 407 13,600 1,980 Climbing Washington Center
07:43AM 35.6247 -79.0264 36° Northeast 367 422 15,600 2,040 Climbing Washington Center
07:44AM 35.7214 -78.9308 39° Northeast 382 440 17,700 1,620 Climbing Washington Center
07:45AM 35.8178 -78.8450 36° Northeast 404 465 18,900 1,440 Climbing Washington Center
07:46AM 35.9119 -78.7567 37° Northeast 416 479 20,600 1,560 Climbing Washington Center
07:47AM 36.0122 -78.6683 35° Northeast 427 491 22,000 1,260 Climbing Washington Center
07:48AM 36.1147 -78.5772 36° Northeast 440 506 23,200 1,080 Climbing Washington Center
07:49AM 36.2150 -78.4831 37° Northeast 445 512 24,200 1,020 Climbing Washington Center
07:50AM 36.3217 -78.3864 36° Northeast 450 518 25,300 1,020 Climbing Washington Center
07:51AM 36.4261 -78.2894 37° Northeast 462 532 26,300 900 Climbing Washington Center
07:52AM 36.5347 -78.1872 37° Northeast 473 544 27,200 900 Climbing Washington Center
07:53AM 36.6328 -78.0975 36° Northeast 473 544 28,200 960 Climbing Washington Center
07:54AM 36.7411 -77.9947 37° Northeast 478 550 29,200 960 Climbing Washington Center
07:55AM 36.8517 -77.8917 37° Northeast 488 562 30,200 960 Climbing Washington Center
07:56AM 36.9642 -77.7883 36° Northeast 488 562 31,200 900 Climbing Washington Center
07:57AM 37.0747 -77.6797 38° Northeast 494 568 32,100 900 Climbing Washington Center
07:58AM 37.1911 -77.5706 37° Northeast 500 575 33,100 960 Climbing Washington Center
07:59AM 37.3056 -77.4639 37° Northeast 505 581 34,100 960 Climbing Washington Center
08:00AM 37.4219 -77.3544 37° Northeast 510 587 35,100 960 Climbing Washington Center
08:01AM 37.5444 -77.2419 36° Northeast 521 600 36,100 960 Climbing Washington Center
08:02AM 37.6608 -77.1264 38° Northeast 535 616 37,100 960 Climbing Washington Center
08:03AM 37.7769 -77.0106 38° Northeast 535 616 38,100 960 Climbing Washington Center
08:04AM 37.8928 -76.8994 37° Northeast 535 616 39,100 960 Climbing Washington Center
08:05AM 38.0297 -76.7647 38° Northeast 525 604 40,300 840 Climbing Washington Center
08:06AM 38.1414 -76.6558 37° Northeast 520 598 41,000 300 Climbing Washington Center
08:07AM 38.2550 -76.5436 38° Northeast 515 593 41,000  Level Washington Center
08:08AM 38.3808 -76.4206 37° Northeast 515 593 41,000 -120 Level Washington Center
08:09AM 38.4942 -76.3106 37° Northeast 520 598 40,800 -1,140 Descending Washington Center
08:10AM 38.6075 -76.1975 38° Northeast 515 593 38,800 -2,040 Descending Washington Center
08:11AM 38.7225 -76.0814 38° Northeast 515 593 36,700 -2,220 Descending Washington Center
08:12AM 38.8439 -75.9647 37° Northeast 526 605 34,400 -2,520 Descending Washington Center
08:13AM 38.9653 -75.8453 37° Northeast 538 619 31,800 -2,700 Descending Washington Center
08:14AM 39.0800 -75.7228 40° Northeast 538 619 29,200 -2,400 Descending Washington Center
08:15AM 39.2008 -75.6022 38° Northeast 538 619 27,000 -1,200 Descending Washington Center
08:16AM 39.3156 -75.4869 38° Northeast 533 613 26,800 -780 Descending Washington Center
08:17AM 39.4300 -75.3686 39° Northeast 533 613 25,500 -1,200 Descending Washington Center
08:18AM 39.5967 -75.2000 38° Northeast 521 600 23,800 -1,020 Descending New York Center
08:19AM 39.6825 -75.0789 47° Northeast 498 573 23,000 -420 Descending New York Center
08:20AM 39.7194 -74.9217 73° East 456 525 23,000  Level New York Center
08:21AM 39.7456 -74.7694 77° East 424 488 23,000  Level New York Center
08:22AM 39.7803 -74.6039 75° East 425 489 23,000  Level New York Center
08:23AM 39.8286 -74.4606 66° East 430 495 23,000 -540 Level New York Center
08:24AM 39.8994 -74.3289 55° Northeast 435 501 22,000 -1,140 Descending New York Center
08:25AM 39.9722 -74.1972 54° Northeast 440 506 20,800 -900 Descending New York Center
08:28AM 40.1342 -73.8919 55° Northeast 425 489 18,900 -900 Descending Boston Center
08:29AM 40.2022 -73.7714 54° Northeast 419 482 17,800 -1,020 Descending Boston Center
08:30AM 40.2661 -73.6531 55° Northeast 409 471 16,900 -480 Descending Boston Center
08:31AM 40.3278 -73.5317 56° Northeast 404 465 16,900  Level Boston Center
08:32AM 40.4183 -73.4350 39° Northeast 372 428 16,900 -540 Level Boston Center
08:34AM 40.6160 -73.3618 16° North  Level FlightAware Approximate
08:35AM 40.8000 -73.2667 270° West 373 429 14,500  Level New York TRACON
08:37AM 40.8691 -73.1238 57° Northeast  Level FlightAware Approximate
08:37AM 40.9000 -73.0833 57° Northeast 338 389 11,700  Level New York TRACON
08:38AM 40.9500 -73.0000 52° Northeast 301 346 10,800 -1,440 Descending New York TRACON
08:39AM 41.0333 -73.0333 343° North 307 353 8,900 -1,680 Descending New York TRACON
08:40AM 41.1000 -73.0833 331° Northwest 284 327 7,700 -1,020 Descending New York TRACON
08:41AM 41.0669 -73.7076 270° West  Level Estimated
08:41AM 41.1500 -73.1333 323° Northwest 256 295 7,000  Level New York TRACON
08:42AM 41.1667 -73.2333 283° West 248 285 5,700 -1,500 Descending New York TRACON
08:43AM 41.1667 -73.3167 270° West 246 283 4,100 -1,260 Descending New York TRACON
08:44AM 41.1833 -73.4000 285° West 245 282 3,400 -600 Descending New York TRACON
08:45AM 41.2000 -73.5000 283° West 240 276 3,000 -240 Descending New York TRACON
08:46AM 41.2000 -73.5667 270° West 231 266 3,000 -420 Level New York TRACON
08:47AM 41.2167 -73.6500 285° West 232 267 2,300 -540 Descending New York TRACON
08:48AM 41.2167 -73.7333 270° West 213 245 2,000 -180 Descending New York TRACON
08:49AM 41.2167 -73.8000 270° West 174 200 2,000  Level New York TRACON
08:50AM 41.1833 -73.7833 159° South 193 222 2,000 -120 Level New York TRACON
08:51AM 41.1333 -73.7667 166° South 140 161 1,800 -420 Descending New York TRACON
08:52AM 41.1000 -73.7333 143° Southeast 144 166 1,200 -600 Descending New York TRACON
08:54AM 41.0667 -73.7000 153° Southeast  Level FlightAware Approximate
09:01AM 41.0669 -73.7076 153° Southeast  Level Estimated
09:02AM 41.0667 -73.7000 153° Southeast  Level FlightAware Approximate